Tamassee, South Carolina
Current Conditions -  °F | °C
As of 12:54 PM on Wednesday 28 Jan 2015 (Local Time) from KCEU Reporting Station
Clear Clear  
Wind Chill:   Ceiling: Unl
Heat Index:   Visibility: 10mi
Dew Point: -8°   Wind: 0mph
Humidity: 30%   Direction: NA
Pressure: 30.26"   Gusts: NA
Location:  34.88°N, 83.02°W
Report Text: KCEU 281754Z AUTO 00000KT 10SM CLR 09/M08 A3026 RMK AO2 SLP248 T00891078 10094 21017 58006
Loading
Personal Weather Stations






























Interactive Weather Map New forecast layout! Learn more

10-Day Weather Forecast

Advertisements
Track Severe Weather on mobile